CCA5999 ZUXC-ZUUU
Flight info
| Callsign | CCA5999 |
|---|---|
| Flight time | 1h 6m |
| Altitude | 30000 |
| Route | ZUXC BOP01D BOPTU W162 KAKMI W144 IGNAK IGNA9J ZUUU |
| Aircraft | A320/M-SDE1GH/0223 |
Departure
| Time | 2026-04-27 12:08 |
|---|---|
| Airport | Xichang Qingshan Airport (ZUXC) |
Arrival
| Time | 2026-04-27 13:14 |
|---|---|
| Airport | Chengdu Shuangliu International Airport (ZUUU) |
| Time | Latitude | Longitude | Altitude | Speed | Heading |
|---|---|---|---|---|---|
| 2026-04-27 11:54 | 27.97954 | 102.18889 | 5082 ft | 0 kts | 88° |
| 2026-04-27 11:59 | 27.97953 | 102.18865 | 5082 ft | 5 kts | 89° |
| 2026-04-27 11:59 | 27.97953 | 102.18838 | 5082 ft | 2 kts | 101° |
| 2026-04-27 11:59 | 27.97956 | 102.18826 | 5082 ft | 2 kts | 137° |
| 2026-04-27 12:00 | 27.97966 | 102.18821 | 5082 ft | 2 kts | 180° |
| 2026-04-27 12:00 | 27.97973 | 102.18820 | 5082 ft | 0 kts | 175° |
| 2026-04-27 12:01 | 27.97958 | 102.18821 | 5082 ft | 6 kts | 178° |
| 2026-04-27 12:01 | 27.97903 | 102.18816 | 5082 ft | 8 kts | 213° |
| 2026-04-27 12:02 | 27.97896 | 102.18742 | 5082 ft | 13 kts | 269° |
| 2026-04-27 12:02 | 27.97895 | 102.18632 | 5083 ft | 12 kts | 269° |
| 2026-04-27 12:02 | 27.97940 | 102.18602 | 5083 ft | 11 kts | 359° |
| 2026-04-27 12:02 | 27.98038 | 102.18600 | 5083 ft | 18 kts | 358° |
| 2026-04-27 12:03 | 27.98181 | 102.18594 | 5083 ft | 22 kts | 358° |
| 2026-04-27 12:03 | 27.98332 | 102.18587 | 5083 ft | 22 kts | 358° |
| 2026-04-27 12:03 | 27.98481 | 102.18582 | 5082 ft | 21 kts | 358° |
| 2026-04-27 12:03 | 27.98628 | 102.18577 | 5082 ft | 21 kts | 358° |
| 2026-04-27 12:04 | 27.98772 | 102.18571 | 5083 ft | 21 kts | 358° |
| 2026-04-27 12:04 | 27.98913 | 102.18566 | 5083 ft | 20 kts | 359° |
| 2026-04-27 12:04 | 27.99050 | 102.18561 | 5083 ft | 20 kts | 358° |
| 2026-04-27 12:04 | 27.99185 | 102.18554 | 5083 ft | 19 kts | 357° |
| 2026-04-27 12:05 | 27.99318 | 102.18550 | 5083 ft | 19 kts | 358° |
| 2026-04-27 12:05 | 27.99451 | 102.18546 | 5083 ft | 19 kts | 358° |
| 2026-04-27 12:05 | 27.99584 | 102.18541 | 5083 ft | 19 kts | 358° |
| 2026-04-27 12:05 | 27.99715 | 102.18535 | 5083 ft | 19 kts | 358° |
| 2026-04-27 12:06 | 27.99821 | 102.18523 | 5082 ft | 10 kts | 329° |
| 2026-04-27 12:06 | 27.99834 | 102.18470 | 5083 ft | 5 kts | 269° |
| 2026-04-27 12:06 | 27.99833 | 102.18426 | 5083 ft | 6 kts | 269° |
| 2026-04-27 12:06 | 27.99815 | 102.18395 | 5083 ft | 4 kts | 196° |
| 2026-04-27 12:07 | 27.99804 | 102.18396 | 5083 ft | 0 kts | 178° |
| 2026-04-27 12:07 | 27.99802 | 102.18396 | 5083 ft | 7 kts | 178° |
| 2026-04-27 12:07 | 27.99471 | 102.18408 | 5084 ft | 86 kts | 178° |
| 2026-04-27 12:08 | 27.98629 | 102.18440 | 5084 ft | 155 kts | 178° |
| 2026-04-27 12:08 | 27.97468 | 102.18487 | 5816 ft | 164 kts | 178° |
| 2026-04-27 12:08 | 27.96373 | 102.18535 | 6895 ft | 154 kts | 178° |
| 2026-04-27 12:08 | 27.95324 | 102.18581 | 7808 ft | 150 kts | 178° |
| 2026-04-27 12:09 | 27.94217 | 102.18630 | 8403 ft | 172 kts | 178° |
| 2026-04-27 12:09 | 27.92928 | 102.18685 | 8971 ft | 198 kts | 178° |
| 2026-04-27 12:09 | 27.91475 | 102.18743 | 9617 ft | 222 kts | 178° |
| 2026-04-27 12:09 | 27.89780 | 102.18811 | 9910 ft | 266 kts | 178° |
| 2026-04-27 12:10 | 27.87800 | 102.18761 | 10227 ft | 304 kts | 191° |
| 2026-04-27 12:10 | 27.85768 | 102.17773 | 10661 ft | 335 kts | 216° |
| 2026-04-27 12:10 | 27.84153 | 102.15760 | 11203 ft | 360 kts | 239° |
| 2026-04-27 12:10 | 27.83266 | 102.13084 | 11814 ft | 379 kts | 259° |
| 2026-04-27 12:11 | 27.83256 | 102.10081 | 12497 ft | 388 kts | 279° |
| 2026-04-27 12:11 | 27.84160 | 102.07201 | 13232 ft | 394 kts | 299° |
| 2026-04-27 12:11 | 27.85886 | 102.04776 | 13974 ft | 401 kts | 318° |
| 2026-04-27 12:11 | 27.88256 | 102.03072 | 14693 ft | 410 kts | 337° |
| 2026-04-27 12:12 | 27.91020 | 102.02290 | 15415 ft | 413 kts | 355° |
| 2026-04-27 12:12 | 27.93875 | 102.02534 | 16164 ft | 414 kts | 13° |
| 2026-04-27 12:12 | 27.96550 | 102.03741 | 16959 ft | 416 kts | 26° |
| 2026-04-27 12:12 | 27.99167 | 102.05176 | 17821 ft | 419 kts | 26° |
| 2026-04-27 12:13 | 28.01811 | 102.06594 | 18676 ft | 422 kts | 25° |
| 2026-04-27 12:13 | 28.04470 | 102.08005 | 19548 ft | 422 kts | 25° |
| 2026-04-27 12:13 | 28.07131 | 102.09414 | 20427 ft | 422 kts | 25° |
| 2026-04-27 12:13 | 28.09796 | 102.10826 | 21234 ft | 423 kts | 25° |
| 2026-04-27 12:14 | 28.12468 | 102.12242 | 22023 ft | 424 kts | 25° |
| 2026-04-27 12:14 | 28.15142 | 102.13656 | 22833 ft | 424 kts | 25° |
| 2026-04-27 12:14 | 28.17807 | 102.15063 | 23656 ft | 422 kts | 25° |
| 2026-04-27 12:14 | 28.20463 | 102.16468 | 24501 ft | 420 kts | 25° |
| 2026-04-27 12:15 | 28.23095 | 102.17862 | 25327 ft | 416 kts | 25° |
| 2026-04-27 12:15 | 28.25708 | 102.19247 | 26185 ft | 412 kts | 25° |
| 2026-04-27 12:15 | 28.28353 | 102.20450 | 27030 ft | 408 kts | 15° |
| 2026-04-27 12:15 | 28.31128 | 102.20945 | 27901 ft | 402 kts | 1° |
| 2026-04-27 12:16 | 28.33896 | 102.20829 | 28788 ft | 394 kts | 357° |
| 2026-04-27 12:16 | 28.36613 | 102.20671 | 29613 ft | 389 kts | 357° |
| 2026-04-27 12:16 | 28.39335 | 102.20536 | 30012 ft | 396 kts | 358° |
| 2026-04-27 12:16 | 28.42144 | 102.20412 | 30005 ft | 413 kts | 358° |
| 2026-04-27 12:17 | 28.45071 | 102.20281 | 29984 ft | 429 kts | 358° |
| 2026-04-27 12:17 | 28.48100 | 102.20142 | 29988 ft | 443 kts | 358° |
| 2026-04-27 12:17 | 28.51231 | 102.19999 | 30006 ft | 456 kts | 358° |
| 2026-04-27 12:17 | 28.54447 | 102.19855 | 30029 ft | 469 kts | 358° |
| 2026-04-27 12:18 | 28.57740 | 102.19706 | 30059 ft | 474 kts | 358° |
| 2026-04-27 12:18 | 28.64251 | 102.19409 | 30084 ft | 469 kts | 358° |
| 2026-04-27 12:19 | 28.70814 | 102.19112 | 30142 ft | 473 kts | 358° |
| 2026-04-27 12:19 | 28.77390 | 102.18813 | 30189 ft | 473 kts | 358° |
| 2026-04-27 12:20 | 28.83968 | 102.18513 | 30231 ft | 480 kts | 358° |
| 2026-04-27 12:20 | 28.90648 | 102.18211 | 30222 ft | 479 kts | 358° |
| 2026-04-27 12:21 | 28.97294 | 102.17914 | 30138 ft | 480 kts | 358° |
| 2026-04-27 12:21 | 29.00635 | 102.18228 | 30083 ft | 486 kts | 13° |
| 2026-04-27 12:21 | 29.03805 | 102.19572 | 30058 ft | 489 kts | 28° |
| 2026-04-27 12:21 | 29.06566 | 102.21834 | 30063 ft | 487 kts | 40° |
| 2026-04-27 12:22 | 29.09120 | 102.24344 | 30080 ft | 482 kts | 40° |
| 2026-04-27 12:22 | 29.14168 | 102.29226 | 30082 ft | 472 kts | 40° |
| 2026-04-27 12:23 | 29.19222 | 102.34082 | 30098 ft | 472 kts | 40° |
| 2026-04-27 12:23 | 29.24223 | 102.38891 | 30105 ft | 467 kts | 40° |
| 2026-04-27 12:24 | 29.29189 | 102.43667 | 30115 ft | 467 kts | 40° |
| 2026-04-27 12:24 | 29.34179 | 102.48472 | 30130 ft | 472 kts | 40° |
| 2026-04-27 12:25 | 29.39169 | 102.53276 | 30158 ft | 469 kts | 40° |
| 2026-04-27 12:25 | 29.44199 | 102.58123 | 30192 ft | 471 kts | 40° |
| 2026-04-27 12:26 | 29.49187 | 102.62931 | 30220 ft | 466 kts | 40° |
| 2026-04-27 12:26 | 29.54161 | 102.67726 | 30228 ft | 471 kts | 40° |
| 2026-04-27 12:27 | 29.59228 | 102.72618 | 30266 ft | 479 kts | 40° |
| 2026-04-27 12:27 | 29.64255 | 102.77470 | 30292 ft | 464 kts | 40° |
| 2026-04-27 12:28 | 29.69208 | 102.82253 | 30305 ft | 467 kts | 40° |
| 2026-04-27 12:28 | 29.74174 | 102.87054 | 30333 ft | 466 kts | 40° |
| 2026-04-27 12:29 | 29.79151 | 102.91864 | 30357 ft | 471 kts | 40° |
| 2026-04-27 12:29 | 29.83509 | 102.97401 | 30363 ft | 469 kts | 63° |
| 2026-04-27 12:29 | 29.84577 | 103.00939 | 30383 ft | 467 kts | 79° |
| 2026-04-27 12:30 | 29.84763 | 103.04641 | 30397 ft | 463 kts | 92° |
| 2026-04-27 12:30 | 29.84602 | 103.08358 | 30267 ft | 469 kts | 93° |
| 2026-04-27 12:30 | 29.84441 | 103.12133 | 29979 ft | 471 kts | 92° |
| 2026-04-27 12:30 | 29.84295 | 103.15884 | 29693 ft | 467 kts | 92° |
| 2026-04-27 12:31 | 29.84152 | 103.19604 | 29410 ft | 463 kts | 92° |
| 2026-04-27 12:31 | 29.84006 | 103.23307 | 29134 ft | 463 kts | 92° |
| 2026-04-27 12:31 | 29.83863 | 103.26965 | 28871 ft | 465 kts | 92° |
| 2026-04-27 12:31 | 29.83715 | 103.30741 | 28568 ft | 467 kts | 92° |
| 2026-04-27 12:32 | 29.83570 | 103.34439 | 28248 ft | 468 kts | 92° |
| 2026-04-27 12:32 | 29.83420 | 103.38224 | 27934 ft | 466 kts | 92° |
| 2026-04-27 12:32 | 29.83276 | 103.41901 | 27625 ft | 466 kts | 92° |
| 2026-04-27 12:32 | 29.83131 | 103.45630 | 27326 ft | 467 kts | 92° |
| 2026-04-27 12:33 | 29.82985 | 103.49371 | 27031 ft | 468 kts | 92° |
| 2026-04-27 12:33 | 29.82839 | 103.53128 | 26700 ft | 470 kts | 92° |
| 2026-04-27 12:33 | 29.82691 | 103.56889 | 26376 ft | 470 kts | 92° |
| 2026-04-27 12:33 | 29.82544 | 103.60644 | 26052 ft | 470 kts | 92° |
| 2026-04-27 12:34 | 29.82397 | 103.64389 | 25749 ft | 467 kts | 92° |
| 2026-04-27 12:34 | 29.82251 | 103.68119 | 25406 ft | 465 kts | 92° |
| 2026-04-27 12:34 | 29.82107 | 103.71820 | 25064 ft | 461 kts | 92° |
| 2026-04-27 12:34 | 29.81962 | 103.75499 | 24722 ft | 459 kts | 92° |
| 2026-04-27 12:35 | 29.81548 | 103.79125 | 24373 ft | 457 kts | 105° |
| 2026-04-27 12:35 | 29.80277 | 103.82458 | 24015 ft | 455 kts | 122° |
| 2026-04-27 12:35 | 29.78163 | 103.85126 | 23624 ft | 451 kts | 143° |
| 2026-04-27 12:35 | 29.75326 | 103.86592 | 23206 ft | 449 kts | 167° |
| 2026-04-27 12:36 | 29.72228 | 103.86878 | 22785 ft | 447 kts | 184° |
| 2026-04-27 12:36 | 29.69216 | 103.86138 | 22376 ft | 443 kts | 200° |
| 2026-04-27 12:36 | 29.66528 | 103.84454 | 21989 ft | 440 kts | 217° |
| 2026-04-27 12:36 | 29.64380 | 103.81976 | 21617 ft | 438 kts | 233° |
| 2026-04-27 12:37 | 29.62955 | 103.78903 | 21275 ft | 436 kts | 250° |
| 2026-04-27 12:37 | 29.62362 | 103.75511 | 20950 ft | 433 kts | 267° |
| 2026-04-27 12:37 | 29.62640 | 103.72087 | 20644 ft | 431 kts | 284° |
| 2026-04-27 12:37 | 29.63756 | 103.68907 | 20358 ft | 430 kts | 300° |
| 2026-04-27 12:38 | 29.65605 | 103.66230 | 20092 ft | 428 kts | 316° |
| 2026-04-27 12:38 | 29.68027 | 103.64266 | 19857 ft | 427 kts | 333° |
| 2026-04-27 12:38 | 29.70819 | 103.63166 | 19629 ft | 425 kts | 349° |
| 2026-04-27 12:38 | 29.73759 | 103.63007 | 19419 ft | 424 kts | 5° |
| 2026-04-27 12:39 | 29.76582 | 103.63776 | 19231 ft | 423 kts | 21° |
| 2026-04-27 12:39 | 29.79137 | 103.65425 | 19058 ft | 422 kts | 37° |
| 2026-04-27 12:39 | 29.81193 | 103.67817 | 18902 ft | 421 kts | 53° |
| 2026-04-27 12:39 | 29.82601 | 103.70758 | 18690 ft | 421 kts | 69° |
| 2026-04-27 12:40 | 29.83252 | 103.74027 | 18498 ft | 418 kts | 85° |
| 2026-04-27 12:40 | 29.83101 | 103.77353 | 18281 ft | 417 kts | 101° |
| 2026-04-27 12:40 | 29.82137 | 103.80494 | 18073 ft | 416 kts | 118° |
| 2026-04-27 12:40 | 29.80445 | 103.83170 | 17883 ft | 414 kts | 134° |
| 2026-04-27 12:41 | 29.78165 | 103.85166 | 17706 ft | 413 kts | 151° |
| 2026-04-27 12:41 | 29.75480 | 103.86325 | 17545 ft | 413 kts | 168° |
| 2026-04-27 12:41 | 29.72628 | 103.86546 | 17415 ft | 412 kts | 184° |
| 2026-04-27 12:41 | 29.69845 | 103.85815 | 17284 ft | 411 kts | 201° |
| 2026-04-27 12:42 | 29.67372 | 103.84201 | 17187 ft | 410 kts | 218° |
| 2026-04-27 12:42 | 29.65409 | 103.81838 | 17104 ft | 410 kts | 234° |
| 2026-04-27 12:42 | 29.64124 | 103.78925 | 17045 ft | 410 kts | 251° |
| 2026-04-27 12:42 | 29.63629 | 103.75713 | 17004 ft | 409 kts | 268° |
| 2026-04-27 12:43 | 29.63971 | 103.72481 | 16971 ft | 408 kts | 285° |
| 2026-04-27 12:43 | 29.65119 | 103.69500 | 16921 ft | 410 kts | 302° |
| 2026-04-27 12:43 | 29.66964 | 103.67009 | 16687 ft | 409 kts | 319° |
| 2026-04-27 12:43 | 29.69337 | 103.65262 | 16475 ft | 406 kts | 336° |
| 2026-04-27 12:44 | 29.72008 | 103.64393 | 16293 ft | 405 kts | 352° |
| 2026-04-27 12:44 | 29.74813 | 103.64445 | 16132 ft | 404 kts | 9° |
| 2026-04-27 12:44 | 29.77480 | 103.65424 | 15990 ft | 403 kts | 26° |
| 2026-04-27 12:44 | 29.79788 | 103.67234 | 15795 ft | 404 kts | 42° |
| 2026-04-27 12:45 | 29.81560 | 103.69724 | 15551 ft | 401 kts | 59° |
| 2026-04-27 12:45 | 29.82630 | 103.72663 | 15334 ft | 399 kts | 75° |
| 2026-04-27 12:45 | 29.82932 | 103.75828 | 15142 ft | 399 kts | 92° |
| 2026-04-27 12:45 | 29.82448 | 103.78960 | 14970 ft | 397 kts | 108° |
| 2026-04-27 12:46 | 29.81226 | 103.81791 | 14804 ft | 396 kts | 124° |
| 2026-04-27 12:46 | 29.79368 | 103.84126 | 14564 ft | 396 kts | 140° |
| 2026-04-27 12:46 | 29.77037 | 103.85770 | 14302 ft | 393 kts | 156° |
| 2026-04-27 12:46 | 29.74411 | 103.86615 | 14047 ft | 393 kts | 172° |
| 2026-04-27 12:47 | 29.71693 | 103.86610 | 13817 ft | 391 kts | 188° |
| 2026-04-27 12:47 | 29.69089 | 103.85769 | 13551 ft | 390 kts | 203° |
| 2026-04-27 12:47 | 29.66780 | 103.84159 | 13310 ft | 388 kts | 219° |
| 2026-04-27 12:47 | 29.64940 | 103.81916 | 13083 ft | 386 kts | 234° |
| 2026-04-27 12:48 | 29.64036 | 103.80159 | 12956 ft | 386 kts | 244° |
| 2026-04-27 12:48 | 29.63213 | 103.77236 | 12757 ft | 385 kts | 259° |
| 2026-04-27 12:48 | 29.63082 | 103.74177 | 12561 ft | 383 kts | 275° |
| 2026-04-27 12:48 | 29.63643 | 103.71191 | 12355 ft | 383 kts | 290° |
| 2026-04-27 12:49 | 29.64854 | 103.68483 | 12178 ft | 381 kts | 304° |
| 2026-04-27 12:49 | 29.66624 | 103.66233 | 11998 ft | 380 kts | 319° |
| 2026-04-27 12:49 | 29.68833 | 103.64577 | 11850 ft | 380 kts | 334° |
| 2026-04-27 12:49 | 29.71332 | 103.63621 | 11715 ft | 379 kts | 349° |
| 2026-04-27 12:50 | 29.73956 | 103.63409 | 11599 ft | 378 kts | 1° |
| 2026-04-27 12:50 | 29.76583 | 103.63528 | 11499 ft | 378 kts | 2° |
| 2026-04-27 12:50 | 29.79216 | 103.63643 | 11385 ft | 378 kts | 2° |
| 2026-04-27 12:50 | 29.81840 | 103.63746 | 11261 ft | 377 kts | 2° |
| 2026-04-27 12:51 | 29.84423 | 103.63845 | 11137 ft | 376 kts | 2° |
| 2026-04-27 12:51 | 29.87040 | 103.63951 | 11016 ft | 376 kts | 2° |
| 2026-04-27 12:51 | 29.89648 | 103.64059 | 10893 ft | 374 kts | 2° |
| 2026-04-27 12:51 | 29.92223 | 103.64450 | 10758 ft | 375 kts | 14° |
| 2026-04-27 12:52 | 29.94663 | 103.65494 | 10644 ft | 373 kts | 23° |
| 2026-04-27 12:52 | 29.97055 | 103.66659 | 10549 ft | 373 kts | 22° |
| 2026-04-27 12:52 | 29.99459 | 103.67789 | 10446 ft | 373 kts | 22° |
| 2026-04-27 12:52 | 30.01866 | 103.68892 | 10334 ft | 371 kts | 21° |
| 2026-04-27 12:53 | 30.06670 | 103.71081 | 10075 ft | 371 kts | 21° |
| 2026-04-27 12:53 | 30.09064 | 103.72184 | 9928 ft | 370 kts | 22° |
| 2026-04-27 12:53 | 30.11446 | 103.73287 | 9786 ft | 369 kts | 22° |
| 2026-04-27 12:54 | 30.13743 | 103.74354 | 9625 ft | 340 kts | 22° |
| 2026-04-27 12:54 | 30.15855 | 103.75335 | 9462 ft | 314 kts | 22° |
| 2026-04-27 12:54 | 30.17808 | 103.76243 | 9287 ft | 293 kts | 22° |
| 2026-04-27 12:54 | 30.19672 | 103.77109 | 9093 ft | 288 kts | 22° |
| 2026-04-27 12:55 | 30.21493 | 103.77952 | 8862 ft | 275 kts | 21° |
| 2026-04-27 12:55 | 30.23229 | 103.78752 | 8632 ft | 262 kts | 21° |
| 2026-04-27 12:55 | 30.24891 | 103.79520 | 8386 ft | 252 kts | 22° |
| 2026-04-27 12:55 | 30.26494 | 103.80260 | 8135 ft | 244 kts | 21° |
| 2026-04-27 12:56 | 30.28048 | 103.80979 | 7878 ft | 237 kts | 21° |
| 2026-04-27 12:56 | 30.29558 | 103.81676 | 7610 ft | 231 kts | 21° |
| 2026-04-27 12:56 | 30.31037 | 103.82358 | 7310 ft | 226 kts | 21° |
| 2026-04-27 12:56 | 30.32462 | 103.83013 | 7040 ft | 214 kts | 21° |
| 2026-04-27 12:57 | 30.33822 | 103.83633 | 6766 ft | 206 kts | 21° |
| 2026-04-27 12:57 | 30.35136 | 103.84232 | 6498 ft | 201 kts | 21° |
| 2026-04-27 12:57 | 30.36423 | 103.84818 | 6228 ft | 197 kts | 21° |
| 2026-04-27 12:57 | 30.37677 | 103.85392 | 5942 ft | 194 kts | 21° |
| 2026-04-27 12:58 | 30.38921 | 103.85962 | 5660 ft | 191 kts | 21° |
| 2026-04-27 12:58 | 30.40135 | 103.86520 | 5385 ft | 181 kts | 21° |
| 2026-04-27 12:58 | 30.41255 | 103.87038 | 5101 ft | 168 kts | 22° |
| 2026-04-27 12:58 | 30.42334 | 103.87539 | 4821 ft | 165 kts | 22° |
| 2026-04-27 12:59 | 30.43378 | 103.88024 | 4553 ft | 156 kts | 22° |
| 2026-04-27 12:59 | 30.43743 | 103.88194 | 4449 ft | 152 kts | 22° |
| 2026-04-27 13:01 | 30.44009 | 103.88317 | 4356 ft | 150 kts | 22° |
| 2026-04-27 13:01 | 30.44967 | 103.88761 | 4100 ft | 147 kts | 21° |
| 2026-04-27 13:01 | 30.45908 | 103.89193 | 3804 ft | 147 kts | 21° |
| 2026-04-27 13:01 | 30.46672 | 103.89540 | 3554 ft | 147 kts | 21° |
| 2026-04-27 13:02 | 30.47110 | 103.89740 | 3421 ft | 147 kts | 21° |
| 2026-04-27 13:02 | 30.48064 | 103.90173 | 3128 ft | 148 kts | 21° |
| 2026-04-27 13:02 | 30.49021 | 103.90608 | 2880 ft | 149 kts | 21° |
| 2026-04-27 13:02 | 30.49993 | 103.91054 | 2678 ft | 151 kts | 21° |
| 2026-04-27 13:03 | 30.50966 | 103.91504 | 2493 ft | 150 kts | 22° |
| 2026-04-27 13:03 | 30.51937 | 103.91955 | 2309 ft | 150 kts | 22° |
| 2026-04-27 13:03 | 30.52904 | 103.92408 | 2129 ft | 150 kts | 22° |
| 2026-04-27 13:03 | 30.53867 | 103.92855 | 1980 ft | 148 kts | 22° |
| 2026-04-27 13:04 | 30.54812 | 103.93292 | 1862 ft | 146 kts | 21° |
| 2026-04-27 13:04 | 30.55757 | 103.93731 | 1760 ft | 146 kts | 21° |
| 2026-04-27 13:04 | 30.56684 | 103.94162 | 1679 ft | 139 kts | 22° |
| 2026-04-27 13:04 | 30.57645 | 103.94609 | 1874 ft | 163 kts | 21° |
| 2026-04-27 13:05 | 30.58709 | 103.95015 | 2659 ft | 153 kts | 1° |
| 2026-04-27 13:05 | 30.59660 | 103.94571 | 3419 ft | 158 kts | 329° |
| 2026-04-27 13:05 | 30.60697 | 103.93828 | 3839 ft | 190 kts | 328° |
| 2026-04-27 13:05 | 30.61829 | 103.93018 | 4018 ft | 187 kts | 328° |
| 2026-04-27 13:06 | 30.62929 | 103.92253 | 4111 ft | 182 kts | 329° |
| 2026-04-27 13:06 | 30.64004 | 103.91511 | 4195 ft | 178 kts | 329° |
| 2026-04-27 13:06 | 30.65059 | 103.90775 | 4270 ft | 176 kts | 329° |
| 2026-04-27 13:06 | 30.66072 | 103.90059 | 4304 ft | 167 kts | 328° |
| 2026-04-27 13:07 | 30.67049 | 103.89369 | 4291 ft | 163 kts | 328° |
| 2026-04-27 13:07 | 30.67333 | 103.89168 | 4287 ft | 162 kts | 328° |
| 2026-04-27 13:08 | 30.68151 | 103.88591 | 4238 ft | 162 kts | 329° |
| 2026-04-27 13:08 | 30.69228 | 103.88287 | 4153 ft | 163 kts | 4° |
| 2026-04-27 13:08 | 30.70249 | 103.88800 | 4092 ft | 162 kts | 42° |
| 2026-04-27 13:08 | 30.70952 | 103.89811 | 4078 ft | 160 kts | 52° |
| 2026-04-27 13:09 | 30.71635 | 103.90830 | 3971 ft | 158 kts | 52° |
| 2026-04-27 13:09 | 30.72305 | 103.91816 | 3843 ft | 154 kts | 52° |
| 2026-04-27 13:09 | 30.72733 | 103.92949 | 3718 ft | 156 kts | 82° |
| 2026-04-27 13:09 | 30.72593 | 103.94189 | 3604 ft | 155 kts | 103° |
| 2026-04-27 13:10 | 30.72336 | 103.95367 | 3501 ft | 148 kts | 104° |
| 2026-04-27 13:10 | 30.72077 | 103.96525 | 3394 ft | 148 kts | 104° |
| 2026-04-27 13:10 | 30.71661 | 103.97638 | 3289 ft | 155 kts | 128° |
| 2026-04-27 13:10 | 30.70782 | 103.98356 | 3206 ft | 157 kts | 159° |
| 2026-04-27 13:11 | 30.69771 | 103.98696 | 3137 ft | 144 kts | 165° |
| 2026-04-27 13:11 | 30.68783 | 103.98944 | 3039 ft | 148 kts | 173° |
| 2026-04-27 13:11 | 30.67750 | 103.98889 | 2945 ft | 148 kts | 189° |
| 2026-04-27 13:11 | 30.66752 | 103.98611 | 2845 ft | 147 kts | 194° |
| 2026-04-27 13:12 | 30.65762 | 103.98302 | 2711 ft | 148 kts | 196° |
| 2026-04-27 13:12 | 30.64789 | 103.97908 | 2565 ft | 146 kts | 201° |
| 2026-04-27 13:12 | 30.63860 | 103.97473 | 2417 ft | 143 kts | 202° |
| 2026-04-27 13:12 | 30.62946 | 103.97052 | 2268 ft | 142 kts | 201° |
| 2026-04-27 13:13 | 30.62030 | 103.96629 | 2129 ft | 143 kts | 201° |
| 2026-04-27 13:13 | 30.61118 | 103.96209 | 1983 ft | 140 kts | 201° |
| 2026-04-27 13:13 | 30.60213 | 103.95794 | 1835 ft | 138 kts | 201° |
| 2026-04-27 13:13 | 30.59329 | 103.95387 | 1689 ft | 134 kts | 201° |
| 2026-04-27 13:14 | 30.58578 | 103.95038 | 1648 ft | 85 kts | 202° |
| 2026-04-27 13:14 | 30.58211 | 103.94868 | 1647 ft | 45 kts | 201° |
| 2026-04-27 13:14 | 30.57955 | 103.94750 | 1648 ft | 36 kts | 202° |
| 2026-04-27 13:14 | 30.57741 | 103.94651 | 1648 ft | 31 kts | 198° |
| 2026-04-27 13:15 | 30.57542 | 103.94605 | 1646 ft | 28 kts | 180° |
| 2026-04-27 13:15 | 30.57379 | 103.94627 | 1647 ft | 15 kts | 163° |
| 2026-04-27 13:15 | 30.57323 | 103.94694 | 1647 ft | 11 kts | 111° |
| 2026-04-27 13:15 | 30.57295 | 103.94776 | 1648 ft | 13 kts | 111° |
| 2026-04-27 13:16 | 30.57250 | 103.94910 | 1647 ft | 21 kts | 111° |
| 2026-04-27 13:16 | 30.57205 | 103.95042 | 1647 ft | 14 kts | 112° |
| 2026-04-27 13:16 | 30.57192 | 103.95080 | 1648 ft | 10 kts | 106° |
| 2026-04-27 13:16 | 30.57194 | 103.95109 | 1647 ft | 2 kts | 55° |
| 2026-04-27 13:17 | 30.57216 | 103.95110 | 1647 ft | 6 kts | 9° |
| 2026-04-27 13:17 | 30.57239 | 103.95120 | 1647 ft | 0 kts | 21° |